Time;durP1;ratioP1;P1;durP2;ratioP2;P2;SDS_P1;SDS_P2;PMS_P1;PMS_P2;Temp;Humidity;BMP_temperature;BMP_pressure;BME280_temperature;BME280_humidity;BME280_pressure;Samples;Min_cycle;Max_cycle;Signal;HPM_P1;HPM_P2
2021/01/11 00:02:00;;;;;;;27.30;17.27;;;1.90;99.90;;;;;;4977522;28;20440;-77
2021/01/11 00:04:26;;;;;;;31.93;19.90;;;1.90;99.90;;;;;;4968932;28;20816;-77
2021/01/11 00:06:51;;;;;;;30.70;20.13;;;1.80;99.90;;;;;;4969435;28;20797;-77
2021/01/11 00:09:17;;;;;;;29.50;18.70;;;1.70;99.90;;;;;;4962698;28;20445;-77
2021/01/11 00:11:43;;;;;;;28.80;18.93;;;1.70;99.90;;;;;;4981799;28;20225;-77
2021/01/11 00:14:09;;;;;;;27.33;19.13;;;1.70;99.90;;;;;;4962972;28;20904;-77
2021/01/11 00:16:35;;;;;;;27.70;18.80;;;1.60;99.90;;;;;;4968854;28;20422;-77
2021/01/11 00:19:01;;;;;;;34.50;19.20;;;1.60;99.90;;;;;;4967981;28;20409;-76
2021/01/11 00:21:27;;;;;;;35.53;20.17;;;1.60;99.90;;;;;;4982195;28;20220;-77
2021/01/11 00:23:53;;;;;;;36.03;21.57;;;1.60;99.90;;;;;;4972700;28;20254;-77
2021/01/11 00:26:19;;;;;;;27.83;19.07;;;1.50;99.90;;;;;;4979575;28;20979;-77
2021/01/11 00:28:45;;;;;;;42.50;22.90;;;1.50;99.90;;;;;;4964434;28;20461;-77
2021/01/11 00:31:11;;;;;;;31.57;21.87;;;1.60;99.90;;;;;;4982525;28;20220;-77
2021/01/11 00:33:38;;;;;;;34.37;22.53;;;1.60;99.90;;;;;;4981868;28;20226;-76
2021/01/11 00:36:10;;;;;;;39.80;21.70;;;1.60;99.90;;;;;;4980758;28;20409;-76
2021/01/11 00:38:36;;;;;;;33.57;19.90;;;1.70;99.90;;;;;;4964168;28;21362;-77
2021/01/11 00:41:02;;;;;;;28.37;20.87;;;1.80;99.90;;;;;;4981126;28;20409;-77
2021/01/11 00:43:27;;;;;;;29.67;19.10;;;1.80;99.90;;;;;;4982035;28;20213;-77
2021/01/11 00:45:53;;;;;;;31.90;20.47;;;1.80;99.90;;;;;;4963811;28;20209;-77
2021/01/11 00:48:19;;;;;;;29.00;20.50;;;1.80;99.90;;;;;;4980889;28;20208;-77
2021/01/11 00:50:44;;;;;;;27.40;18.77;;;1.80;99.90;;;;;;4949200;28;20217;-76
2021/01/11 00:53:10;;;;;;;29.83;21.10;;;1.90;99.90;;;;;;4981901;28;20751;-76
2021/01/11 00:55:36;;;;;;;31.67;20.33;;;1.90;99.90;;;;;;4968576;28;20661;-76
2021/01/11 00:58:01;;;;;;;24.70;18.70;;;1.80;99.90;;;;;;4977112;28;20253;-76
2021/01/11 01:00:27;;;;;;;28.80;20.07;;;1.80;99.90;;;;;;4968904;28;20364;-75
2021/01/11 01:02:52;;;;;;;31.40;20.90;;;1.90;99.90;;;;;;4969602;28;20229;-76
2021/01/11 01:05:18;;;;;;;32.13;21.40;;;1.80;99.90;;;;;;4966680;28;20248;-77
2021/01/11 01:07:44;;;;;;;38.17;22.40;;;1.80;99.90;;;;;;4965724;28;21027;-77
2021/01/11 01:10:14;;;;;;;25.90;20.07;;;1.80;99.90;;;;;;4981165;28;20684;-77
2021/01/11 01:12:40;;;;;;;37.07;19.60;;;1.80;99.90;;;;;;4967288;28;20961;-76
2021/01/11 01:15:07;;;;;;;33.50;19.40;;;1.90;99.90;;;;;;4971516;28;21178;-77
2021/01/11 01:17:37;;;;;;;32.57;19.33;;;2.00;99.90;;;;;;4979829;28;20963;-76
2021/01/11 01:20:25;;;;;;;29.97;20.53;;;2.00;99.90;;;;;;4979442;28;20756;-76
2021/01/11 01:22:51;;;;;;;34.97;19.97;;;1.90;99.90;;;;;;4964360;28;20471;-77
2021/01/11 01:25:17;;;;;;;28.30;20.07;;;1.90;99.90;;;;;;4946011;28;20447;-77
2021/01/11 01:27:43;;;;;;;32.80;21.53;;;1.90;99.90;;;;;;4948151;28;20212;-77
2021/01/11 01:30:10;;;;;;;27.23;19.80;;;1.80;99.90;;;;;;4965147;28;20205;-77
2021/01/11 01:32:36;;;;;;;36.03;21.10;;;1.90;99.90;;;;;;4980948;28;20225;-78
2021/01/11 01:35:03;;;;;;;34.60;21.57;;;1.90;99.90;;;;;;4930989;28;20434;-76
2021/01/11 01:37:28;;;;;;;31.23;21.33;;;1.80;99.90;;;;;;4979369;28;20404;-76
2021/01/11 01:39:54;;;;;;;32.77;20.80;;;1.80;99.90;;;;;;4963680;28;20444;-76
2021/01/11 01:42:20;;;;;;;31.50;21.23;;;1.80;99.90;;;;;;4980149;28;20274;-76
2021/01/11 01:44:45;;;;;;;33.00;22.13;;;1.80;99.90;;;;;;4966831;28;20213;-77
2021/01/11 01:47:11;;;;;;;36.83;21.53;;;1.80;99.90;;;;;;4964113;28;20216;-77
2021/01/11 01:49:37;;;;;;;33.27;21.00;;;1.80;99.90;;;;;;4948137;28;20295;-77
2021/01/11 01:52:07;;;;;;;30.50;20.30;;;1.80;99.90;;;;;;4963461;28;20453;-77
2021/01/11 01:54:34;;;;;;;39.73;23.07;;;1.70;99.90;;;;;;4966158;28;20224;-77
2021/01/11 01:57:00;;;;;;;29.50;20.07;;;1.80;99.90;;;;;;4962066;28;20396;-77
2021/01/11 01:59:27;;;;;;;36.33;21.67;;;1.70;99.90;;;;;;4987571;28;20867;-77
2021/01/11 02:01:54;;;;;;;32.00;19.90;;;1.80;99.90;;;;;;4964995;28;20809;-77
2021/01/11 02:04:20;;;;;;;30.53;19.20;;;1.70;99.90;;;;;;4960901;28;20438;-77
2021/01/11 02:06:51;;;;;;;29.83;20.13;;;1.90;99.90;;;;;;4976663;28;20495;-77
2021/01/11 02:09:39;;;;;;;31.87;19.13;;;1.90;99.90;;;;;;4946071;28;21048;-77
2021/01/11 02:12:22;;;;;;;33.00;19.80;;;1.90;99.90;;;;;;4959614;28;20456;-77
2021/01/11 02:14:56;;;;;;;34.13;20.00;;;1.80;99.90;;;;;;4954652;28;20391;-77
2021/01/11 02:17:31;;;;;;;29.93;19.33;;;1.80;99.90;;;;;;4962111;28;22494;-77
2021/01/11 02:20:12;;;;;;;29.40;16.37;;;1.70;99.90;;;;;;4963588;28;20385;-77
2021/01/11 02:22:56;;;;;;;39.13;22.80;;;1.70;99.90;;;;;;4964939;28;20398;-77
2021/01/11 02:25:30;;;;;;;27.30;20.30;;;1.70;99.90;;;;;;4979700;28;20925;-77
2021/01/11 02:27:59;;;;;;;37.13;20.03;;;1.70;99.90;;;;;;4977817;28;21208;-77
2021/01/11 02:30:31;;;;;;;33.10;21.53;;;1.70;99.90;;;;;;4962852;28;20416;-77
2021/01/11 02:33:08;;;;;;;37.73;22.20;;;1.70;99.90;;;;;;4980918;28;20913;-77
2021/01/11 02:35:57;;;;;;;33.20;18.70;;;1.70;99.90;;;;;;4965666;28;20895;-77
2021/01/11 02:38:24;;;;;;;42.17;22.83;;;1.70;99.90;;;;;;4968252;28;20475;-77
2021/01/11 02:40:50;;;;;;;32.00;20.33;;;1.70;99.90;;;;;;4962883;28;20383;-77
2021/01/11 02:43:16;;;;;;;30.80;20.50;;;1.60;99.90;;;;;;4962891;28;20537;-77
2021/01/11 02:45:42;;;;;;;35.43;24.37;;;1.70;99.90;;;;;;4977364;28;20440;-77
2021/01/11 02:48:22;;;;;;;37.20;21.77;;;1.70;99.90;;;;;;4961160;28;20494;-77
2021/01/11 02:50:57;;;;;;;35.10;25.10;;;1.70;99.90;;;;;;4976758;28;20206;-76
2021/01/11 02:53:46;;;;;;;32.00;22.27;;;1.60;99.90;;;;;;4961768;28;20505;-76
2021/01/11 02:56:19;;;;;;;35.20;24.23;;;1.60;99.90;;;;;;4978863;28;20396;-75
2021/01/11 02:58:51;;;;;;;41.10;24.63;;;1.60;99.90;;;;;;4979341;28;20896;-77
2021/01/11 03:01:17;;;;;;;37.73;23.73;;;1.60;99.90;;;;;;4963298;28;20424;-78
2021/01/11 03:03:49;;;;;;;31.63;22.73;;;1.60;99.90;;;;;;4968417;28;20424;-77
2021/01/11 03:06:16;;;;;;;37.47;21.40;;;1.60;99.90;;;;;;4976956;28;20453;-77
2021/01/11 03:08:41;;;;;;;39.40;22.80;;;1.60;99.90;;;;;;4942698;28;20878;-77
2021/01/11 03:11:07;;;;;;;35.13;20.43;;;1.60;99.90;;;;;;4979108;28;20465;-77
2021/01/11 03:13:33;;;;;;;34.67;20.87;;;1.70;99.90;;;;;;4961519;28;20266;-77
2021/01/11 03:15:58;;;;;;;37.30;23.80;;;1.60;99.90;;;;;;4977953;28;20630;-77
2021/01/11 03:18:24;;;;;;;37.50;22.70;;;1.60;99.90;;;;;;4978242;28;20234;-77
2021/01/11 03:20:50;;;;;;;34.03;22.77;;;1.50;99.90;;;;;;4978641;28;20210;-77
2021/01/11 03:23:16;;;;;;;31.80;20.80;;;1.60;99.90;;;;;;4977411;28;20515;-76
2021/01/11 03:25:41;;;;;;;40.93;24.47;;;1.50;99.90;;;;;;4961149;28;20665;-77
2021/01/11 03:28:07;;;;;;;37.87;22.63;;;1.60;99.90;;;;;;4956395;28;20304;-77
2021/01/11 03:30:32;;;;;;;35.47;23.23;;;1.50;99.90;;;;;;4974882;28;20362;-77
2021/01/11 03:32:58;;;;;;;37.40;24.07;;;1.50;99.90;;;;;;4976429;28;20236;-78
2021/01/11 03:35:24;;;;;;;39.97;23.47;;;1.50;99.90;;;;;;4979097;28;20211;-77
2021/01/11 03:37:50;;;;;;;37.60;23.53;;;1.50;99.90;;;;;;4977592;28;20990;-77
2021/01/11 03:40:16;;;;;;;42.43;22.97;;;1.60;99.90;;;;;;4978672;28;20436;-77
2021/01/11 03:42:42;;;;;;;44.13;24.53;;;1.60;99.90;;;;;;4975604;28;20238;-76
2021/01/11 03:45:09;;;;;;;36.13;23.60;;;1.50;99.90;;;;;;4962163;28;20216;-77
2021/01/11 03:47:36;;;;;;;38.47;26.30;;;1.50;99.90;;;;;;4959949;28;22021;-77
2021/01/11 03:50:03;;;;;;;33.50;19.87;;;1.50;99.90;;;;;;4961400;28;20406;-76
2021/01/11 03:52:33;;;;;;;40.33;24.50;;;1.50;99.90;;;;;;4976561;28;20875;-77
2021/01/11 03:54:58;;;;;;;39.17;24.07;;;1.50;99.90;;;;;;4976535;28;20831;-76
2021/01/11 03:57:27;;;;;;;46.60;27.30;;;1.50;99.90;;;;;;4976451;28;20424;-77
2021/01/11 03:59:53;;;;;;;41.67;26.27;;;1.50;99.90;;;;;;4964676;28;20308;-77
2021/01/11 04:02:18;;;;;;;41.60;25.90;;;1.50;99.90;;;;;;4957817;28;21001;-77
2021/01/11 04:04:44;;;;;;;45.70;25.67;;;1.50;99.90;;;;;;4963372;28;20292;-77
2021/01/11 04:07:10;;;;;;;37.50;24.30;;;1.50;99.90;;;;;;4977694;28;20252;-77
2021/01/11 04:09:35;;;;;;;47.30;27.17;;;1.60;99.90;;;;;;4960099;28;20387;-77
2021/01/11 04:12:01;;;;;;;50.20;26.87;;;1.50;99.90;;;;;;4978014;28;20249;-77
2021/01/11 04:14:26;;;;;;;43.70;25.43;;;1.60;99.90;;;;;;4977239;28;20594;-77
2021/01/11 04:16:52;;;;;;;46.43;27.73;;;1.50;99.90;;;;;;4977666;28;20218;-77
2021/01/11 04:19:19;;;;;;;39.80;26.00;;;1.40;99.90;;;;;;4964161;28;20277;-77
2021/01/11 04:21:44;;;;;;;49.30;29.00;;;1.50;99.90;;;;;;4976548;28;20518;-77
2021/01/11 04:24:10;;;;;;;46.87;28.90;;;1.50;99.90;;;;;;4962382;28;20469;-76
2021/01/11 04:26:35;;;;;;;48.43;30.53;;;1.40;99.90;;;;;;4962463;28;20586;-76
2021/01/11 04:29:01;;;;;;;43.10;26.73;;;1.40;99.90;;;;;;4962177;28;20220;-77
2021/01/11 04:31:27;;;;;;;49.03;29.00;;;1.40;99.90;;;;;;4963614;28;20926;-76
2021/01/11 04:33:52;;;;;;;45.90;28.00;;;1.40;99.90;;;;;;4979648;28;20239;-76
2021/01/11 04:36:18;;;;;;;48.23;30.23;;;1.40;99.90;;;;;;4962942;28;20217;-76
2021/01/11 04:38:44;;;;;;;43.57;27.00;;;1.40;99.90;;;;;;4979896;28;20223;-76
2021/01/11 04:41:10;;;;;;;42.80;27.13;;;1.30;99.90;;;;;;4979201;28;20271;-77
2021/01/11 04:43:44;;;;;;;37.47;24.50;;;1.30;99.90;;;;;;4963844;28;20216;-77
2021/01/11 04:46:13;;;;;;;38.80;24.67;;;1.30;99.90;;;;;;4967263;28;20883;-77
2021/01/11 04:48:40;;;;;;;47.83;29.17;;;1.20;99.90;;;;;;4979933;28;20378;-77
2021/01/11 04:51:06;;;;;;;39.67;25.47;;;1.20;99.90;;;;;;4962793;28;20398;-76
2021/01/11 04:53:34;;;;;;;51.07;29.60;;;1.20;99.90;;;;;;4964135;28;20427;-77
2021/01/11 04:56:01;;;;;;;46.03;28.27;;;1.20;99.90;;;;;;4965746;28;20510;-77
2021/01/11 04:58:45;;;;;;;37.10;26.80;;;1.20;99.90;;;;;;4978724;28;20855;-77
2021/01/11 05:01:19;;;;;;;55.37;30.77;;;1.20;99.90;;;;;;4965061;28;20395;-76
2021/01/11 05:03:45;;;;;;;30.10;21.10;;;1.20;99.90;;;;;;4964301;28;20426;-76
2021/01/11 05:06:11;;;;;;;52.23;31.90;;;1.20;99.90;;;;;;4964288;28;20463;-76
2021/01/11 05:08:37;;;;;;;45.73;28.97;;;1.20;99.90;;;;;;4977897;28;20213;-77
2021/01/11 05:11:03;;;;;;;51.03;33.50;;;1.20;99.90;;;;;;4977318;28;20853;-77
2021/01/11 05:13:28;;;;;;;44.20;29.23;;;1.20;99.90;;;;;;4970710;28;20985;-76
2021/01/11 05:15:54;;;;;;;49.30;29.67;;;1.20;99.90;;;;;;4978736;28;20280;-76
2021/01/11 05:18:20;;;;;;;54.80;31.23;;;1.20;99.90;;;;;;4977099;28;20281;-77
2021/01/11 05:20:47;;;;;;;47.67;29.37;;;1.30;99.90;;;;;;4979468;28;20935;-77
2021/01/11 05:23:15;;;;;;;48.80;31.03;;;1.20;99.90;;;;;;4981519;28;20481;-77
2021/01/11 05:25:43;;;;;;;36.00;22.30;;;1.20;99.90;;;;;;4965177;28;20440;-77
2021/01/11 05:28:09;;;;;;;51.93;31.33;;;1.30;99.90;;;;;;4976372;28;20423;-77
2021/01/11 05:30:38;;;;;;;48.67;33.60;;;1.30;99.90;;;;;;4965517;28;20883;-77
2021/01/11 05:33:05;;;;;;;48.73;29.80;;;1.20;99.90;;;;;;4963826;28;20227;-77
2021/01/11 05:35:31;;;;;;;50.90;27.13;;;1.20;99.90;;;;;;4979204;28;20455;-77
2021/01/11 05:37:59;;;;;;;50.33;28.93;;;1.20;99.90;;;;;;4964743;28;20741;-77
2021/01/11 05:40:26;;;;;;;52.80;33.47;;;1.20;99.90;;;;;;4979769;28;20936;-77
2021/01/11 05:43:00;;;;;;;48.87;28.67;;;1.20;99.90;;;;;;4977598;28;20402;-76
2021/01/11 05:45:27;;;;;;;45.23;27.43;;;1.20;99.90;;;;;;4962399;28;20401;-76
2021/01/11 05:47:57;;;;;;;42.67;27.47;;;1.20;99.90;;;;;;4977458;28;22464;-77
2021/01/11 05:50:26;;;;;;;43.00;27.87;;;1.20;99.90;;;;;;4975045;28;20948;-77
2021/01/11 05:52:52;;;;;;;30.63;15.40;;;1.20;99.90;;;;;;4977337;28;20426;-77
2021/01/11 05:55:26;;;;;;;42.80;25.63;;;1.30;99.90;;;;;;4978863;28;20435;-77
2021/01/11 05:58:01;;;;;;;36.43;21.20;;;1.20;99.90;;;;;;4966614;28;20600;-77
2021/01/11 06:00:32;;;;;;;43.43;25.50;;;1.30;99.90;;;;;;4962437;28;20392;-77
2021/01/11 06:02:59;;;;;;;39.07;25.50;;;1.30;99.90;;;;;;4978075;28;20526;-76
2021/01/11 06:05:27;;;;;;;40.77;22.57;;;1.30;99.90;;;;;;4961248;28;20973;-77
2021/01/11 06:07:52;;;;;;;38.90;23.67;;;1.40;99.90;;;;;;4977384;28;20422;-77
2021/01/11 06:10:20;;;;;;;44.03;23.73;;;1.40;99.90;;;;;;4978683;28;20933;-77
2021/01/11 06:12:46;;;;;;;54.43;28.03;;;1.40;99.90;;;;;;4962772;28;20225;-77
2021/01/11 06:15:21;;;;;;;37.43;21.70;;;1.40;99.90;;;;;;4978232;28;20920;-77
2021/01/11 06:17:53;;;;;;;42.63;28.60;;;1.40;99.90;;;;;;4975904;28;20416;-77
2021/01/11 06:20:19;;;;;;;24.53;17.10;;;1.30;99.90;;;;;;4959920;28;20908;-76
2021/01/11 06:22:45;;;;;;;41.93;24.57;;;1.40;99.90;;;;;;4979655;28;20486;-77
2021/01/11 06:25:20;;;;;;;40.20;23.90;;;1.40;99.90;;;;;;4962168;28;20810;-77
2021/01/11 06:27:55;;;;;;;45.37;25.27;;;1.50;99.90;;;;;;4961287;28;20217;-77
2021/01/11 06:30:43;;;;;;;35.43;21.13;;;1.40;99.90;;;;;;4961863;28;20431;-77
2021/01/11 06:33:17;;;;;;;33.70;21.90;;;1.50;99.90;;;;;;4976802;28;20422;-77
2021/01/11 06:35:44;;;;;;;41.70;24.57;;;1.50;99.90;;;;;;4963372;28;21078;-76
2021/01/11 06:38:19;;;;;;;49.97;25.93;;;1.50;99.90;;;;;;4960952;28;20426;-76
2021/01/11 06:41:04;;;;;;;45.03;25.93;;;1.50;99.90;;;;;;4961318;28;20382;-76
2021/01/11 06:43:43;;;;;;;43.57;25.77;;;1.50;99.90;;;;;;4947134;28;20479;-76
2021/01/11 06:46:34;;;;;;;46.27;26.30;;;1.40;99.90;;;;;;4949867;28;20435;-76
2021/01/11 06:49:02;;;;;;;50.07;28.17;;;1.40;99.90;;;;;;4948367;28;20391;-76
2021/01/11 06:51:32;;;;;;;48.63;26.83;;;1.50;99.90;;;;;;4956889;28;20954;-76
2021/01/11 06:54:08;;;;;;;49.50;26.67;;;1.50;99.90;;;;;;4969317;28;20414;-76
2021/01/11 06:56:37;;;;;;;45.07;25.77;;;1.50;99.90;;;;;;4957685;28;20389;-76
2021/01/11 06:59:11;;;;;;;48.40;26.00;;;1.50;99.90;;;;;;4949424;28;20390;-76
2021/01/11 07:01:40;;;;;;;44.07;25.73;;;1.60;99.90;;;;;;4968257;28;20537;-76
2021/01/11 07:04:08;;;;;;;45.40;27.47;;;1.60;99.90;;;;;;4964668;28;20435;-76
2021/01/11 07:06:40;;;;;;;39.60;27.30;;;1.60;99.90;;;;;;4951351;28;20422;-76
2021/01/11 07:09:19;;;;;;;48.90;27.37;;;1.60;99.90;;;;;;4952288;28;20416;-76
2021/01/11 07:11:50;;;;;;;41.30;25.47;;;1.60;99.90;;;;;;4948373;28;20435;-77
2021/01/11 07:14:21;;;;;;;40.57;26.00;;;1.60;99.90;;;;;;4950374;28;20441;-77
2021/01/11 07:16:52;;;;;;;47.10;27.47;;;1.50;99.90;;;;;;4947546;28;20481;-77
2021/01/11 07:19:22;;;;;;;46.57;28.77;;;1.60;99.90;;;;;;4950588;28;20947;-76
2021/01/11 07:21:49;;;;;;;33.23;22.00;;;1.60;99.90;;;;;;4947628;28;20490;-76
2021/01/11 07:24:16;;;;;;;42.23;26.90;;;1.50;99.90;;;;;;4950532;28;20491;-75
2021/01/11 07:26:43;;;;;;;45.23;26.40;;;1.60;99.90;;;;;;4931908;28;20845;-76
2021/01/11 07:29:17;;;;;;;44.97;25.57;;;1.60;99.90;;;;;;4965159;28;21305;-76
2021/01/11 07:31:45;;;;;;;46.00;27.60;;;1.60;99.90;;;;;;4968597;28;20448;-76
2021/01/11 07:34:15;;;;;;;43.93;29.90;;;1.50;99.90;;;;;;4963881;28;20842;-76
2021/01/11 07:36:52;;;;;;;38.77;24.97;;;1.50;99.90;;;;;;4962689;28;20544;-77
2021/01/11 07:39:23;;;;;;;40.20;26.50;;;1.60;99.90;;;;;;4963527;28;20503;-75
2021/01/11 07:41:55;;;;;;;42.27;26.03;;;1.60;99.90;;;;;;4962176;28;20914;-76
2021/01/11 07:44:33;;;;;;;28.13;16.97;;;1.70;99.90;;;;;;4968674;28;20416;-76
2021/01/11 07:47:01;;;;;;;43.20;28.47;;;1.70;99.90;;;;;;4969746;28;20431;-76
2021/01/11 07:49:29;;;;;;;45.97;24.07;;;1.70;99.90;;;;;;4978649;28;20383;-77
2021/01/11 07:52:02;;;;;;;37.03;22.77;;;1.70;99.90;;;;;;4980883;28;20402;-77
2021/01/11 07:54:28;;;;;;;33.60;22.30;;;1.70;99.90;;;;;;4968720;28;20391;-76
2021/01/11 07:56:54;;;;;;;39.43;24.40;;;1.70;99.90;;;;;;4965275;28;21006;-76
2021/01/11 07:59:19;;;;;;;49.03;25.60;;;1.80;99.90;;;;;;4964997;28;20456;-76
2021/01/11 08:01:49;;;;;;;41.87;26.67;;;1.80;99.90;;;;;;4985775;28;20210;-76
2021/01/11 08:04:16;;;;;;;39.97;26.33;;;1.80;99.90;;;;;;4966762;28;20208;-77
2021/01/11 08:06:48;;;;;;;38.57;24.80;;;1.80;99.90;;;;;;4972199;28;20416;-76
2021/01/11 08:09:14;;;;;;;33.30;20.07;;;1.70;99.90;;;;;;4987397;28;20383;-76
2021/01/11 08:11:40;;;;;;;44.10;27.03;;;1.70;99.90;;;;;;4954627;28;20414;-76
2021/01/11 08:14:07;;;;;;;42.77;25.47;;;1.80;99.90;;;;;;4952898;28;20424;-76
2021/01/11 08:16:35;;;;;;;46.63;25.93;;;1.70;99.90;;;;;;4950899;28;20420;-77
2021/01/11 08:19:05;;;;;;;41.63;24.50;;;1.80;99.90;;;;;;4983771;28;21000;-76
2021/01/11 08:21:30;;;;;;;41.07;23.00;;;1.80;99.90;;;;;;4984404;28;20429;-77
2021/01/11 08:24:04;;;;;;;39.67;22.77;;;1.80;99.90;;;;;;4968875;28;20421;-76
2021/01/11 08:26:32;;;;;;;32.57;20.93;;;1.80;99.90;;;;;;4974966;28;20212;-76
2021/01/11 08:28:58;;;;;;;39.00;23.37;;;1.80;99.90;;;;;;4983870;28;20389;-76
2021/01/11 08:31:25;;;;;;;36.40;23.63;;;1.80;99.90;;;;;;4967053;28;20410;-77
2021/01/11 08:33:51;;;;;;;30.23;20.57;;;1.80;99.90;;;;;;4971855;28;20410;-76
2021/01/11 08:36:23;;;;;;;40.43;23.63;;;1.90;99.90;;;;;;4965324;28;20404;-76
2021/01/11 08:39:12;;;;;;;35.33;20.47;;;1.90;99.90;;;;;;4969367;28;20833;-76
2021/01/11 08:41:46;;;;;;;34.13;20.80;;;1.90;99.90;;;;;;4961737;28;20427;-76
2021/01/11 08:44:32;;;;;;;33.60;23.90;;;1.70;99.90;;;;;;4967729;28;20891;-76
2021/01/11 08:47:08;;;;;;;40.10;25.10;;;1.70;99.90;;;;;;4985194;28;20482;-76
2021/01/11 08:49:35;;;;;;;31.67;21.27;;;1.80;99.90;;;;;;4986366;28;20961;-76
2021/01/11 08:52:12;;;;;;;33.70;21.70;;;1.80;99.90;;;;;;4982493;28;20395;-76
2021/01/11 08:54:39;;;;;;;34.20;22.27;;;2.00;99.90;;;;;;4985027;28;20430;-76
2021/01/11 08:57:13;;;;;;;31.27;21.50;;;2.00;99.90;;;;;;4974095;28;20404;-76
2021/01/11 08:59:50;;;;;;;36.93;19.80;;;1.90;99.90;;;;;;4985344;28;20386;-76
2021/01/11 09:02:24;;;;;;;34.50;19.40;;;2.00;99.90;;;;;;4985124;28;20481;-76
2021/01/11 09:04:50;;;;;;;30.57;19.70;;;2.10;99.90;;;;;;4983802;28;20922;-77
2021/01/11 09:07:28;;;;;;;33.33;22.50;;;2.10;99.90;;;;;;4971028;28;20448;-76
2021/01/11 09:09:53;;;;;;;36.53;21.33;;;2.10;99.90;;;;;;4968525;28;20269;-77
2021/01/11 09:12:29;;;;;;;30.00;21.03;;;2.20;99.90;;;;;;4981561;28;20406;-76
2021/01/11 09:14:56;;;;;;;36.97;22.03;;;2.00;99.90;;;;;;4987052;28;20451;-77
2021/01/11 09:17:26;;;;;;;28.67;16.53;;;2.00;99.90;;;;;;4982262;28;20901;-76
2021/01/11 09:19:52;;;;;;;36.90;22.53;;;2.10;99.90;;;;;;4971887;28;20854;-77
2021/01/11 09:22:29;;;;;;;42.97;23.40;;;2.10;99.90;;;;;;4983692;28;20422;-76
2021/01/11 09:24:54;;;;;;;35.07;19.97;;;2.10;99.90;;;;;;4985078;28;20502;-76
2021/01/11 09:27:20;;;;;;;31.27;18.10;;;2.00;99.90;;;;;;4971780;28;20883;-76
2021/01/11 09:29:45;;;;;;;34.23;21.80;;;2.00;99.90;;;;;;4987422;28;20223;-76
2021/01/11 09:32:11;;;;;;;37.60;20.67;;;2.10;99.90;;;;;;4971834;28;20239;-77
2021/01/11 09:34:37;;;;;;;35.87;21.90;;;2.00;99.90;;;;;;4971835;28;20256;-76
2021/01/11 09:37:02;;;;;;;32.33;22.37;;;2.00;99.90;;;;;;4970518;28;20694;-76
2021/01/11 09:39:28;;;;;;;37.70;22.97;;;2.00;99.90;;;;;;4982606;28;20235;-76
2021/01/11 09:41:55;;;;;;;34.13;20.37;;;2.00;99.90;;;;;;4987023;28;20213;-76
2021/01/11 09:44:21;;;;;;;32.03;22.20;;;2.10;99.90;;;;;;4970668;28;20311;-76
2021/01/11 09:46:55;;;;;;;29.60;20.37;;;2.20;99.90;;;;;;4951373;28;20413;-77
2021/01/11 09:49:21;;;;;;;33.40;21.10;;;2.10;99.90;;;;;;4984075;28;20469;-76
2021/01/11 09:51:48;;;;;;;28.47;19.03;;;2.10;99.90;;;;;;4971905;28;20448;-76
2021/01/11 09:54:14;;;;;;;31.10;18.43;;;2.10;99.90;;;;;;4966865;28;20406;-76
2021/01/11 09:56:40;;;;;;;26.90;18.20;;;2.30;99.90;;;;;;4983074;28;20434;-76
2021/01/11 09:59:06;;;;;;;32.30;19.07;;;2.20;99.90;;;;;;4953518;28;20209;-77
2021/01/11 10:01:43;;;;;;;22.80;16.00;;;2.20;99.90;;;;;;4989008;28;20275;-76
2021/01/11 10:04:11;;;;;;;30.63;17.63;;;2.10;99.90;;;;;;4986093;28;20400;-76
2021/01/11 10:06:41;;;;;;;27.00;16.47;;;2.20;99.90;;;;;;4967390;28;20792;-75
2021/01/11 10:09:08;;;;;;;30.43;15.20;;;2.20;99.90;;;;;;4981472;28;20404;-76
2021/01/11 10:11:34;;;;;;;21.20;12.40;;;2.30;99.90;;;;;;4973974;28;20452;-76
2021/01/11 10:14:00;;;;;;;23.57;15.20;;;2.20;99.90;;;;;;4987873;28;20431;-77
2021/01/11 10:16:26;;;;;;;19.10;11.60;;;2.30;99.90;;;;;;4968818;28;20713;-77
2021/01/11 10:18:51;;;;;;;23.40;15.57;;;2.30;99.90;;;;;;4979573;28;20275;-76
2021/01/11 10:21:17;;;;;;;21.13;15.20;;;2.20;99.90;;;;;;4985026;28;20218;-76
2021/01/11 10:23:42;;;;;;;18.63;12.97;;;2.20;99.90;;;;;;4971366;28;20221;-77
2021/01/11 10:26:18;;;;;;;20.27;14.67;;;2.40;99.90;;;;;;4953385;28;20217;-76
2021/01/11 10:28:44;;;;;;;25.40;14.90;;;2.40;99.90;;;;;;4980948;28;20231;-77
2021/01/11 10:31:10;;;;;;;23.03;14.27;;;2.30;99.90;;;;;;4971526;28;20435;-76
2021/01/11 10:33:36;;;;;;;24.07;13.70;;;2.30;99.90;;;;;;4985871;28;20440;-75
2021/01/11 10:36:02;;;;;;;26.10;13.27;;;2.50;99.90;;;;;;4970980;28;20226;-76
2021/01/11 10:38:27;;;;;;;25.40;14.97;;;2.50;99.90;;;;;;4964118;28;20535;-76
2021/01/11 10:40:53;;;;;;;19.30;11.20;;;2.60;99.90;;;;;;4955001;28;20417;-76
2021/01/11 10:43:19;;;;;;;26.10;12.70;;;2.40;99.90;;;;;;4985021;28;20213;-75
2021/01/11 10:45:44;;;;;;;25.63;15.30;;;2.20;99.90;;;;;;4985812;28;20213;-75
2021/01/11 10:48:10;;;;;;;18.17;11.70;;;2.30;99.90;;;;;;4967578;28;20211;-75
2021/01/11 10:50:36;;;;;;;18.00;11.87;;;2.20;99.90;;;;;;4974997;28;20210;-76
2021/01/11 10:53:01;;;;;;;19.03;13.53;;;2.30;99.90;;;;;;4984087;28;20269;-76
2021/01/11 10:55:27;;;;;;;24.60;16.47;;;2.20;99.90;;;;;;4988147;28;20787;-76
2021/01/11 10:57:53;;;;;;;23.30;13.73;;;2.10;99.90;;;;;;4983935;28;20244;-76
2021/01/11 11:00:21;;;;;;;23.43;15.50;;;2.10;99.90;;;;;;4981993;28;20240;-76
2021/01/11 11:02:47;;;;;;;19.80;14.20;;;2.00;99.90;;;;;;4972913;28;20706;-76
2021/01/11 11:05:13;;;;;;;24.43;13.50;;;2.10;99.90;;;;;;4983681;28;20899;-76
2021/01/11 11:07:39;;;;;;;17.53;12.33;;;2.10;99.90;;;;;;4969452;28;20479;-76
2021/01/11 11:10:06;;;;;;;19.70;13.80;;;2.00;99.90;;;;;;4967508;28;20941;-76
2021/01/11 11:12:32;;;;;;;21.27;14.07;;;2.10;99.90;;;;;;4982165;28;20440;-76
2021/01/11 11:15:00;;;;;;;24.20;14.20;;;1.90;99.90;;;;;;4992740;28;20434;-76
2021/01/11 11:17:32;;;;;;;20.53;13.43;;;2.00;99.90;;;;;;4971817;28;20459;-76
2021/01/11 11:19:58;;;;;;;20.57;13.47;;;2.10;99.90;;;;;;4984168;28;20504;-76
2021/01/11 11:22:24;;;;;;;22.60;14.67;;;2.20;99.90;;;;;;4982877;28;20956;-76
2021/01/11 11:24:50;;;;;;;23.93;14.37;;;2.20;99.90;;;;;;4989325;28;20382;-75
2021/01/11 11:27:17;;;;;;;18.20;12.60;;;2.20;99.90;;;;;;4966464;28;20507;-75
2021/01/11 11:29:42;;;;;;;31.03;14.47;;;2.10;99.90;;;;;;4967006;28;20213;-75
2021/01/11 11:32:08;;;;;;;23.53;13.20;;;2.20;99.90;;;;;;4968002;28;20471;-76
2021/01/11 11:34:34;;;;;;;19.20;11.70;;;2.30;99.90;;;;;;4968582;28;20558;-76
2021/01/11 11:37:00;;;;;;;20.53;13.13;;;2.20;99.90;;;;;;4984413;28;20209;-76
2021/01/11 11:39:25;;;;;;;21.23;10.57;;;2.30;99.90;;;;;;4981703;28;20737;-76
2021/01/11 11:42:01;;;;;;;17.00;12.10;;;2.30;99.90;;;;;;4992458;28;20507;-75
2021/01/11 11:44:27;;;;;;;22.83;14.13;;;2.40;99.90;;;;;;4973992;28;20204;-76
2021/01/11 11:46:53;;;;;;;15.87;9.93;;;2.40;99.90;;;;;;4956991;28;20478;-76
2021/01/11 11:49:20;;;;;;;16.40;11.50;;;2.50;99.90;;;;;;4974107;28;20416;-76
2021/01/11 11:51:46;;;;;;;16.23;11.17;;;2.50;99.90;;;;;;4968715;28;20451;-76
2021/01/11 11:54:12;;;;;;;19.03;11.50;;;2.50;99.90;;;;;;4987810;28;20478;-76
2021/01/11 11:56:42;;;;;;;21.57;12.93;;;2.50;99.90;;;;;;4980762;28;20502;-76
2021/01/11 11:59:09;;;;;;;20.10;10.80;;;2.60;99.90;;;;;;4970613;28;20239;-76
2021/01/11 12:01:39;;;;;;;19.87;12.17;;;2.70;99.90;;;;;;4987509;28;20874;-76
2021/01/11 12:04:05;;;;;;;17.03;10.93;;;2.70;99.90;;;;;;4985134;28;20809;-76
2021/01/11 12:06:41;;;;;;;19.07;12.13;;;2.80;99.90;;;;;;4969896;28;20786;-76
2021/01/11 12:09:08;;;;;;;17.80;11.23;;;2.90;99.90;;;;;;4988552;28;20437;-76
2021/01/11 12:11:49;;;;;;;19.53;12.57;;;3.00;99.90;;;;;;4984972;28;20443;-76
2021/01/11 12:14:17;;;;;;;11.70;9.37;;;2.90;99.90;;;;;;4987201;28;21176;-76
2021/01/11 12:16:46;;;;;;;14.10;10.10;;;2.90;99.90;;;;;;4971438;28;20436;-76
2021/01/11 12:19:12;;;;;;;17.90;11.33;;;3.00;99.90;;;;;;4983069;28;20450;-76
2021/01/11 12:21:37;;;;;;;13.57;10.83;;;2.90;99.90;;;;;;4993150;28;20434;-76
2021/01/11 12:24:04;;;;;;;15.93;11.13;;;2.90;99.90;;;;;;4982006;28;20210;-77
2021/01/11 12:26:44;;;;;;;21.63;11.20;;;3.00;99.90;;;;;;4953711;28;20216;-77
2021/01/11 12:29:11;;;;;;;17.33;10.43;;;3.10;99.90;;;;;;4970140;28;20419;-76
2021/01/11 12:31:37;;;;;;;14.40;9.70;;;3.20;99.90;;;;;;4955749;28;21973;-76
2021/01/11 12:34:04;;;;;;;16.00;9.93;;;3.10;99.90;;;;;;4972000;28;21319;-76
2021/01/11 12:36:31;;;;;;;13.43;10.10;;;3.10;99.90;;;;;;4973925;28;20417;-77
2021/01/11 12:38:59;;;;;;;14.80;9.53;;;3.10;99.90;;;;;;4972070;28;20784;-77
2021/01/11 12:41:26;;;;;;;16.37;10.63;;;3.10;99.90;;;;;;4972248;28;20864;-77
2021/01/11 12:43:52;;;;;;;18.20;12.07;;;3.20;99.90;;;;;;4970618;28;20379;-76
2021/01/11 12:46:20;;;;;;;14.43;9.77;;;3.20;99.90;;;;;;4968482;28;20479;-77